Time;durP1;ratioP1;P1;durP2;ratioP2;P2;SDS_P1;SDS_P2;PMS_P1;PMS_P2;Temp;Humidity;BMP_temperature;BMP_pressure;BME280_temperature;BME280_humidity;BME280_pressure;Samples;Min_cycle;Max_cycle;Signal;HPM_P1;HPM_P2
2023/04/01 00:00:51;;;;;;;0.70;0.50;;;;;;;10.11;79.39;97328.81;5013193;27;102701;-60
2023/04/01 00:03:20;;;;;;;2.00;0.73;;;;;;;10.05;79.42;97326.75;5007779;27;102715;-60
2023/04/01 00:05:48;;;;;;;0.90;0.57;;;;;;;10.04;79.72;97323.28;4990308;27;103288;-60
2023/04/01 00:08:18;;;;;;;2.10;0.70;;;;;;;10.02;80.09;97332.31;5009183;27;103428;-60
2023/04/01 00:10:46;;;;;;;2.13;0.87;;;;;;;10.18;78.92;97324.69;5011535;27;103294;-60
2023/04/01 00:13:17;;;;;;;1.20;0.63;;;;;;;10.12;79.46;97330.50;5011284;27;102701;-60
2023/04/01 00:15:46;;;;;;;2.03;0.60;;;;;;;10.11;79.36;97324.38;4992077;27;103254;-60
2023/04/01 00:18:15;;;;;;;0.73;0.60;;;;;;;10.14;79.59;97325.94;5021818;27;103415;-60
2023/04/01 00:20:45;;;;;;;1.27;0.57;;;;;;;10.15;79.20;97331.09;5011295;27;102921;-61
2023/04/01 00:23:13;;;;;;;3.30;0.60;;;;;;;10.08;79.41;97329.09;5013148;27;102708;-60
2023/04/01 00:25:43;;;;;;;2.03;0.53;;;;;;;10.23;79.10;97330.38;5009226;27;103877;-60
2023/04/01 00:28:11;;;;;;;2.30;0.70;;;;;;;10.21;79.18;97334.97;5002348;27;103052;-60
2023/04/01 00:30:39;;;;;;;1.50;0.80;;;;;;;10.28;78.83;97322.84;4994515;27;102782;-60
2023/04/01 00:33:07;;;;;;;1.37;0.80;;;;;;;10.28;78.64;97322.84;4996073;27;102825;-60
2023/04/01 00:35:35;;;;;;;2.80;0.70;;;;;;;10.20;79.44;97338.56;4995117;27;103280;-60
2023/04/01 00:38:03;;;;;;;1.83;0.70;;;;;;;10.27;79.37;97332.56;4993359;27;104308;-60
2023/04/01 00:40:34;;;;;;;1.23;0.77;;;;;;;10.25;79.41;97323.97;5009919;27;103957;-60
2023/04/01 00:43:04;;;;;;;0.90;0.70;;;;;;;10.23;79.09;97335.66;5011866;27;102811;-61
2023/04/01 00:45:35;;;;;;;2.63;0.73;;;;;;;10.33;78.74;97333.84;5009442;27;103314;-60
2023/04/01 00:48:09;;;;;;;1.57;0.43;;;;;;;10.06;79.40;97334.53;4993308;27;103010;-60
2023/04/01 00:50:40;;;;;;;2.07;0.80;;;;;;;10.20;79.25;97335.94;5008421;27;103184;-60
2023/04/01 00:53:09;;;;;;;1.43;0.60;;;;;;;10.07;79.82;97344.13;4991946;27;104334;-60
2023/04/01 00:55:42;;;;;;;2.73;0.70;;;;;;;10.22;79.21;97336.59;5004281;27;104135;-60
2023/04/01 00:58:16;;;;;;;1.40;0.60;;;;;;;10.25;79.47;97337.16;5000794;27;103046;-60
2023/04/01 01:00:47;;;;;;;2.23;0.90;;;;;;;10.42;79.17;97330.31;4993193;27;103082;-60
2023/04/01 01:03:15;;;;;;;2.70;0.60;;;;;;;10.38;79.03;97334.25;5006231;27;103134;-60
2023/04/01 01:06:02;;;;;;;2.40;0.80;;;;;;;10.32;79.51;97340.09;5011788;27;103882;-60
2023/04/01 01:08:47;;;;;;;1.00;0.77;;;;;;;10.30;79.49;97334.13;4993886;27;103304;-60
2023/04/01 01:11:21;;;;;;;3.07;0.63;;;;;;;10.28;79.93;97331.59;4997681;27;102845;-60
2023/04/01 01:13:57;;;;;;;2.07;0.70;;;;;;;10.21;79.71;97332.31;4994808;27;103167;-60
2023/04/01 01:16:29;;;;;;;2.53;0.73;;;;;;;10.24;80.38;97329.41;4989363;27;104473;-60
2023/04/01 01:19:06;;;;;;;3.53;0.80;;;;;;;10.32;80.06;97332.16;5005181;27;103213;-60
2023/04/01 01:21:50;;;;;;;1.90;0.70;;;;;;;10.20;80.88;97328.84;5012979;27;102961;-60
2023/04/01 01:24:31;;;;;;;3.20;0.60;;;;;;;10.24;80.78;97329.41;4993774;27;102784;-60
2023/04/01 01:27:05;;;;;;;3.10;0.90;;;;;;;10.26;80.65;97327.44;4991771;27;103510;-60
2023/04/01 01:29:58;;;;;;;1.83;0.87;;;;;;;10.40;80.28;97334.94;5011416;27;103252;-60
2023/04/01 01:33:00;;;;;;;1.17;0.60;;;;;;;10.39;80.49;97334.09;5004550;27;102922;-60
2023/04/01 01:35:33;;;;;;;0.73;0.63;;;;;;;10.20;81.64;97325.38;4991140;27;103139;-61
2023/04/01 01:38:09;;;;;;;3.70;1.07;;;;;;;10.21;81.75;97332.31;4990344;28;104200;-60
2023/04/01 01:40:40;;;;;;;2.40;0.90;;;;;;;10.15;81.75;97330.25;4990205;27;105055;-60
2023/04/01 01:43:12;;;;;;;1.27;0.60;;;;;;;10.24;81.85;97326.75;5011607;27;102757;-60
2023/04/01 01:45:45;;;;;;;1.40;0.70;;;;;;;10.17;82.52;97336.22;5006461;27;103892;-60
2023/04/01 01:48:13;;;;;;;3.20;0.67;;;;;;;10.26;82.84;97322.16;5016529;27;104164;-60
2023/04/01 01:50:45;;;;;;;1.83;0.73;;;;;;;10.24;84.04;97332.03;4996236;27;103267;-60
2023/04/01 01:53:15;;;;;;;2.27;0.80;;;;;;;10.04;85.09;97335.66;4995911;27;103043;-60
2023/04/01 01:55:46;;;;;;;2.23;0.77;;;;;;;10.10;85.46;97337.72;4994392;27;102819;-60
2023/04/01 01:58:20;;;;;;;2.57;0.90;;;;;;;10.05;85.24;97338.13;4992934;27;103419;-61
2023/04/01 02:00:53;;;;;;;2.20;0.70;;;;;;;10.02;86.24;97334.97;4983267;27;105003;-60
2023/04/01 02:03:25;;;;;;;3.47;0.80;;;;;;;10.03;86.13;97331.31;4988878;27;103941;-60
2023/04/01 02:05:58;;;;;;;3.17;1.43;;;;;;;10.09;85.76;97325.50;4997104;27;103132;-60
2023/04/01 02:08:33;;;;;;;1.13;0.80;;;;;;;10.13;86.36;97326.91;4988824;27;103347;-60
2023/04/01 02:11:06;;;;;;;2.37;0.80;;;;;;;10.12;85.98;97330.50;5006552;27;103351;-60
2023/04/01 02:13:45;;;;;;;0.93;0.60;;;;;;;10.15;85.99;97328.44;4988688;27;102712;-60
2023/04/01 02:16:21;;;;;;;3.63;0.70;;;;;;;10.18;85.39;97329.97;4993556;27;103460;-60
2023/04/01 02:18:53;;;;;;;2.37;0.80;;;;;;;9.93;86.92;97335.78;4989924;27;103200;-60
2023/04/01 02:21:27;;;;;;;4.27;0.90;;;;;;;10.08;86.14;97337.00;4994391;27;103133;-60
2023/04/01 02:23:57;;;;;;;1.33;0.70;;;;;;;10.10;85.95;97337.72;5008625;27;102997;-60
2023/04/01 02:26:26;;;;;;;3.07;0.80;;;;;;;10.00;86.09;97342.16;4990191;27;104396;-61
2023/04/01 02:28:55;;;;;;;3.10;0.90;;;;;;;10.03;86.60;97336.59;4990972;27;103305;-60
2023/04/01 02:31:24;;;;;;;2.63;0.60;;;;;;;10.00;86.79;97339.53;4996998;27;103215;-60
2023/04/01 02:33:54;;;;;;;2.30;0.63;;;;;;;9.99;86.12;97329.97;5003069;27;102801;-60
2023/04/01 02:36:24;;;;;;;1.17;0.50;;;;;;;10.03;85.65;97331.31;5015325;27;102736;-60
2023/04/01 02:38:54;;;;;;;3.13;0.70;;;;;;;9.96;85.91;97332.88;5007658;27;103241;-60
2023/04/01 02:41:22;;;;;;;0.80;0.53;;;;;;;9.79;85.97;97335.25;4993069;27;104145;-59
2023/04/01 02:43:51;;;;;;;2.17;0.70;;;;;;;9.71;86.14;97340.34;5008546;27;102738;-60
2023/04/01 02:46:18;;;;;;;0.50;0.50;;;;;;;9.84;85.27;97327.75;4994780;27;104041;-60
2023/04/01 02:48:47;;;;;;;3.60;0.70;;;;;;;9.96;84.72;97338.16;4992934;27;104065;-60
2023/04/01 02:51:15;;;;;;;1.40;0.80;;;;;;;9.85;84.71;97334.66;5011998;27;103245;-60
2023/04/01 02:53:46;;;;;;;1.10;0.60;;;;;;;9.91;85.17;97342.03;4996107;27;103925;-60
2023/04/01 02:56:14;;;;;;;1.30;0.50;;;;;;;9.92;85.30;97329.69;5012653;27;103842;-60
2023/04/01 02:58:43;;;;;;;0.80;0.50;;;;;;;9.91;85.51;97334.09;4992435;27;103450;-59
2023/04/01 03:01:11;;;;;;;0.70;0.60;;;;;;;9.78;84.76;97338.84;4994116;28;103264;-60
2023/04/01 03:03:42;;;;;;;1.73;0.60;;;;;;;9.72;84.97;97328.84;5014601;27;102800;-60
2023/04/01 03:06:12;;;;;;;0.47;0.47;;;;;;;9.68;85.13;97339.81;5011698;27;103079;-60
2023/04/01 03:08:40;;;;;;;2.13;0.60;;;;;;;9.78;84.41;97338.84;5009850;27;103393;-60
2023/04/01 03:11:10;;;;;;;2.03;0.60;;;;;;;9.78;84.46;97336.22;5011771;27;103268;-60
2023/04/01 03:13:38;;;;;;;1.27;0.50;;;;;;;9.65;85.09;97346.19;5003205;27;103372;-60
2023/04/01 03:16:06;;;;;;;0.70;0.40;;;;;;;9.60;84.71;97332.56;4997703;27;102933;-60
2023/04/01 03:18:35;;;;;;;1.43;0.50;;;;;;;9.69;84.62;97339.66;5017223;27;102989;-60
2023/04/01 03:21:15;;;;;;;1.57;0.50;;;;;;;9.77;84.57;97346.88;5007106;27;103276;-60
2023/04/01 03:23:43;;;;;;;1.57;0.30;;;;;;;9.83;83.90;97347.16;5005970;27;102811;-60
2023/04/01 03:26:13;;;;;;;2.10;0.40;;;;;;;9.74;84.25;97347.19;4990465;27;102780;-60
2023/04/01 03:28:42;;;;;;;0.50;0.40;;;;;;;9.69;84.13;97339.66;5007925;27;105199;-60
2023/04/01 03:31:13;;;;;;;1.30;0.40;;;;;;;9.77;83.76;97346.88;4996537;27;104580;-60
2023/04/01 03:33:48;;;;;;;0.50;0.40;;;;;;;9.71;83.08;97343.00;4994110;27;102803;-61
2023/04/01 03:36:17;;;;;;;1.47;0.60;;;;;;;9.72;83.60;97347.31;5010327;27;103086;-59
2023/04/01 03:38:48;;;;;;;1.57;0.60;;;;;;;9.59;83.51;97356.44;4992831;27;103409;-60
2023/04/01 03:41:23;;;;;;;1.33;0.50;;;;;;;9.58;83.74;97342.44;4994395;27;103315;-60
2023/04/01 03:43:54;;;;;;;0.77;0.60;;;;;;;9.78;82.88;97338.00;4994475;27;102696;-60
2023/04/01 03:46:22;;;;;;;0.93;0.40;;;;;;;9.71;82.77;97332.44;4994706;27;102774;-60
2023/04/01 03:48:50;;;;;;;1.33;0.40;;;;;;;9.63;82.05;97337.56;4993021;27;105686;-60
2023/04/01 03:51:19;;;;;;;0.70;0.50;;;;;;;9.60;82.88;97335.22;4996113;27;103457;-61
2023/04/01 03:53:49;;;;;;;0.57;0.40;;;;;;;9.57;82.96;97334.69;4987209;27;103069;-60
2023/04/01 03:56:19;;;;;;;1.90;0.60;;;;;;;9.56;82.17;97333.00;4995263;27;102954;-60
2023/04/01 03:58:49;;;;;;;1.10;0.40;;;;;;;9.53;81.80;97331.47;4997385;27;103204;-60
2023/04/01 04:01:22;;;;;;;0.80;0.57;;;;;;;9.55;81.24;97328.69;4992810;27;104001;-60
2023/04/01 04:03:54;;;;;;;1.60;0.50;;;;;;;9.60;81.10;97326.50;4994813;27;102858;-60
2023/04/01 04:06:23;;;;;;;1.23;0.50;;;;;;;9.47;81.58;97324.09;4994543;27;102729;-60
2023/04/01 04:08:54;;;;;;;0.30;0.30;;;;;;;9.56;81.15;97315.38;4993499;27;103680;-61
2023/04/01 04:11:24;;;;;;;1.20;0.40;;;;;;;9.50;80.97;97315.09;5000336;27;103186;-60
2023/04/01 04:13:54;;;;;;;3.27;0.50;;;;;;;9.47;81.35;97313.56;5004502;27;102716;-60
2023/04/01 04:16:24;;;;;;;2.47;0.47;;;;;;;9.43;80.79;97312.16;5010239;27;102716;-60
2023/04/01 04:19:02;;;;;;;0.80;0.60;;;;;;;9.41;80.75;97315.91;5004909;27;106122;-60
2023/04/01 04:21:30;;;;;;;2.47;0.50;;;;;;;9.41;80.41;97321.16;5010432;27;103222;-60
2023/04/01 04:24:01;;;;;;;1.00;0.37;;;;;;;9.46;80.35;97311.06;4995103;27;102772;-60
2023/04/01 04:26:46;;;;;;;1.60;0.60;;;;;;;9.56;79.35;97298.72;4992782;27;103910;-61
2023/04/01 04:29:15;;;;;;;2.00;0.60;;;;;;;9.48;79.60;97304.69;5005309;27;103215;-61
2023/04/01 04:31:44;;;;;;;1.40;0.67;;;;;;;9.39;79.49;97302.88;5009578;27;104520;-60
2023/04/01 04:34:12;;;;;;;2.17;0.53;;;;;;;9.42;79.10;97317.56;4993047;27;102715;-61
2023/04/01 04:36:40;;;;;;;1.73;0.60;;;;;;;9.49;79.43;97305.53;4990848;27;103193;-60
2023/04/01 04:39:08;;;;;;;1.00;0.50;;;;;;;9.37;78.95;97317.16;5006680;27;103257;-60
2023/04/01 04:41:40;;;;;;;2.80;0.50;;;;;;;9.29;79.31;97307.31;5004764;27;103042;-60
2023/04/01 04:44:09;;;;;;;1.37;0.60;;;;;;;9.27;79.62;97312.69;4994849;27;102717;-60
2023/04/01 04:46:40;;;;;;;2.53;0.80;;;;;;;9.38;79.46;97324.06;5013887;27;102811;-60
2023/04/01 04:49:12;;;;;;;0.87;0.50;;;;;;;9.49;79.12;97311.59;5000690;27;105264;-61
2023/04/01 04:51:41;;;;;;;0.60;0.50;;;;;;;9.47;79.27;97313.56;4994298;27;105130;-60
2023/04/01 04:54:10;;;;;;;2.53;0.53;;;;;;;9.53;79.14;97312.19;4994009;27;102863;-61
2023/04/01 04:56:54;;;;;;;0.77;0.50;;;;;;;9.74;78.18;97311.06;5001651;27;102654;-60
2023/04/01 04:59:24;;;;;;;0.70;0.40;;;;;;;9.47;78.99;97308.28;4992070;27;103174;-60
2023/04/01 05:02:13;;;;;;;0.73;0.40;;;;;;;9.37;79.54;97314.53;4991099;27;103210;-60
2023/04/01 05:04:42;;;;;;;0.70;0.40;;;;;;;9.63;79.01;97313.00;5010540;27;102702;-60
2023/04/01 05:07:12;;;;;;;1.40;0.30;;;;;;;9.66;78.33;97304.81;5011259;27;102941;-61
2023/04/01 05:09:41;;;;;;;1.20;1.00;;;;;;;9.61;78.59;97307.88;5011840;27;103690;-60
2023/04/01 05:12:09;;;;;;;1.17;0.60;;;;;;;9.33;79.35;97312.16;4995796;27;103252;-60
2023/04/01 05:14:55;;;;;;;1.90;0.50;;;;;;;9.29;80.33;97309.94;4994768;27;104953;-60
2023/04/01 05:17:24;;;;;;;0.60;0.30;;;;;;;9.36;80.34;97316.31;4992627;27;103227;-60
2023/04/01 05:19:52;;;;;;;1.60;0.40;;;;;;;9.60;79.23;97300.94;4995564;27;105088;-61
2023/04/01 05:22:20;;;;;;;1.83;0.40;;;;;;;9.71;78.41;97300.00;4994208;27;103515;-61
2023/04/01 05:24:48;;;;;;;0.93;0.50;;;;;;;9.55;79.12;97304.94;5008390;27;102755;-60
2023/04/01 05:27:17;;;;;;;0.97;0.60;;;;;;;9.33;80.28;97300.78;4993389;27;104321;-60
2023/04/01 05:29:46;;;;;;;1.20;0.50;;;;;;;9.28;80.25;97303.84;4993004;27;103041;-60
2023/04/01 05:32:37;;;;;;;0.43;0.33;;;;;;;9.41;80.51;97298.28;4989694;27;104741;-60
2023/04/01 05:35:07;;;;;;;1.07;0.40;;;;;;;9.47;80.50;97305.66;4992248;27;102792;-60
2023/04/01 05:37:35;;;;;;;1.77;0.60;;;;;;;9.67;79.89;97304.69;5005762;27;102871;-60
2023/04/01 05:40:06;;;;;;;1.40;0.60;;;;;;;9.52;79.75;97300.78;4989887;27;103433;-60
2023/04/01 05:42:34;;;;;;;1.20;0.60;;;;;;;9.59;80.11;97301.91;5003206;27;104315;-60
2023/04/01 05:45:06;;;;;;;1.30;0.60;;;;;;;9.58;79.90;97292.34;5008664;27;102768;-60
2023/04/01 05:47:50;;;;;;;0.70;0.50;;;;;;;9.64;79.82;97294.44;5007809;27;102730;-60
2023/04/01 05:50:19;;;;;;;1.83;0.80;;;;;;;9.67;79.67;97282.75;4991889;27;105304;-60
2023/04/01 05:52:47;;;;;;;2.00;0.50;;;;;;;9.74;79.97;97282.06;5014950;27;103264;-60
2023/04/01 05:55:16;;;;;;;1.37;0.53;;;;;;;9.64;79.88;97278.59;4994032;27;102746;-61
2023/04/01 05:57:46;;;;;;;0.50;0.43;;;;;;;9.68;79.07;97276.53;4995107;27;102695;-60
2023/04/01 06:00:15;;;;;;;0.87;0.47;;;;;;;9.70;78.72;97280.69;5012101;27;103246;-60
2023/04/01 06:02:43;;;;;;;1.57;0.70;;;;;;;9.67;78.00;97278.31;5001435;27;103111;-60
2023/04/01 06:05:18;;;;;;;3.00;0.70;;;;;;;9.84;77.15;97276.78;5007185;27;104105;-60
2023/04/01 06:07:46;;;;;;;1.20;0.60;;;;;;;10.01;76.60;97270.81;5011590;27;102725;-60
2023/04/01 06:10:17;;;;;;;1.40;0.50;;;;;;;9.99;75.85;97272.75;4992408;27;105207;-60
2023/04/01 06:12:55;;;;;;;1.23;0.40;;;;;;;10.09;75.68;97262.16;4991163;27;103421;-61
2023/04/01 06:15:37;;;;;;;0.70;0.33;;;;;;;10.29;75.20;97269.09;5008846;27;102860;-61
2023/04/01 06:18:41;;;;;;;1.73;0.50;;;;;;;10.39;74.56;97260.16;4991488;27;104372;-61
2023/04/01 06:21:26;;;;;;;1.23;0.60;;;;;;;10.23;74.54;97267.88;4993677;27;103733;-60
2023/04/01 06:24:11;;;;;;;1.93;0.53;;;;;;;10.50;74.73;97267.06;5014161;27;103137;-60
2023/04/01 06:26:50;;;;;;;2.17;0.60;;;;;;;10.69;73.57;97264.38;4998093;27;102778;-60
2023/04/01 06:29:37;;;;;;;0.90;0.47;;;;;;;10.67;73.54;97274.22;4996296;27;104199;-61
2023/04/01 06:32:37;;;;;;;1.77;0.77;;;;;;;10.93;72.87;97272.59;5016733;27;103215;-60
2023/04/01 06:35:20;;;;;;;2.93;0.93;;;;;;;10.60;73.48;97267.88;4988400;27;103467;-60
2023/04/01 06:38:18;;;;;;;0.83;0.40;;;;;;;10.60;73.51;97275.81;4995247;27;104539;-60
2023/04/01 06:41:15;;;;;;;0.50;0.47;;;;;;;10.40;73.65;97274.22;5001542;27;102819;-60
2023/04/01 06:43:53;;;;;;;1.50;0.50;;;;;;;10.37;73.96;97277.97;4993374;27;103225;-61
2023/04/01 06:46:47;;;;;;;2.07;0.60;;;;;;;10.62;73.78;97280.94;5013132;27;103102;-60
2023/04/01 06:49:50;;;;;;;1.60;0.43;;;;;;;10.74;72.85;97277.97;5005781;27;102834;-60
2023/04/01 06:52:49;;;;;;;1.73;0.50;;;;;;;10.79;73.16;97278.38;5008975;27;103672;-60
2023/04/01 06:55:45;;;;;;;1.87;0.70;;;;;;;10.80;73.38;97274.75;5009089;27;104048;-61
2023/04/01 06:58:20;;;;;;;1.80;0.50;;;;;;;10.63;73.73;97278.16;5015125;27;103057;-60
2023/04/01 07:00:53;;;;;;;0.97;0.50;;;;;;;10.74;73.48;97280.63;4995774;27;102867;-61
2023/04/01 07:03:29;;;;;;;0.37;0.30;;;;;;;10.65;73.90;97276.19;5001844;27;104174;-61
2023/04/01 07:05:59;;;;;;;1.13;0.43;;;;;;;10.91;73.11;97277.19;4992955;27;104180;-60
2023/04/01 07:08:30;;;;;;;1.47;0.40;;;;;;;10.99;72.64;97277.28;4996486;27;105372;-60
2023/04/01 07:11:04;;;;;;;1.03;0.60;;;;;;;10.81;72.95;97284.31;4996818;27;103116;-61
2023/04/01 07:13:55;;;;;;;1.27;0.30;;;;;;;10.94;72.96;97282.19;5023968;27;103962;-60
2023/04/01 07:16:31;;;;;;;1.50;0.70;;;;;;;11.09;72.52;97284.34;4999859;27;105170;-60
2023/04/01 07:19:05;;;;;;;2.20;0.73;;;;;;;10.77;72.87;97280.31;5001140;27;103214;-60
2023/04/01 07:21:57;;;;;;;0.70;0.40;;;;;;;10.86;73.46;97284.72;5001862;28;102750;-60
2023/04/01 07:24:40;;;;;;;1.30;0.50;;;;;;;10.75;73.63;97286.72;5001312;27;102750;-60
2023/04/01 07:27:13;;;;;;;2.10;0.50;;;;;;;10.77;74.03;97290.88;5000324;27;103238;-60
2023/04/01 07:29:42;;;;;;;2.40;0.73;;;;;;;10.87;73.51;97296.94;5004770;27;103198;-60
2023/04/01 07:32:23;;;;;;;0.80;0.30;;;;;;;10.76;73.58;97299.78;5000462;27;102827;-60
2023/04/01 07:35:02;;;;;;;1.40;0.60;;;;;;;10.84;73.63;97302.53;4999282;27;104451;-60
2023/04/01 07:37:39;;;;;;;1.33;0.57;;;;;;;10.90;73.37;97296.66;4998080;27;104227;-60
2023/04/01 07:40:19;;;;;;;0.83;0.40;;;;;;;10.66;73.93;97299.00;4999649;27;104470;-60
2023/04/01 07:43:06;;;;;;;2.17;0.60;;;;;;;10.54;73.94;97297.50;5020603;27;102710;-60
2023/04/01 07:45:46;;;;;;;1.67;0.50;;;;;;;10.81;74.12;97308.09;4999759;27;102858;-60
2023/04/01 07:48:26;;;;;;;1.17;0.63;;;;;;;11.01;73.47;97304.38;5018233;27;104538;-60
2023/04/01 07:51:02;;;;;;;1.53;0.40;;;;;;;10.94;73.71;97300.69;5016964;27;104648;-60
2023/04/01 07:53:39;;;;;;;1.30;0.40;;;;;;;11.12;73.72;97294.59;5011506;27;102784;-61
2023/04/01 07:56:11;;;;;;;0.83;0.50;;;;;;;11.32;72.97;97312.00;5000391;27;104089;-60
2023/04/01 07:58:57;;;;;;;1.63;0.50;;;;;;;10.98;73.06;97304.69;5002559;27;103101;-60
2023/04/01 08:01:51;;;;;;;2.10;0.60;;;;;;;11.24;73.42;97304.00;5021920;27;103172;-60
2023/04/01 08:04:42;;;;;;;1.00;0.60;;;;;;;11.15;73.37;97307.50;4998962;27;103125;-60
2023/04/01 08:07:18;;;;;;;0.97;0.50;;;;;;;11.33;72.86;97308.38;5019336;27;102718;-60
2023/04/01 08:10:13;;;;;;;1.37;0.53;;;;;;;11.16;73.83;97309.19;4997582;27;105381;-60
2023/04/01 08:13:11;;;;;;;0.90;0.50;;;;;;;11.32;72.56;97312.00;5018967;27;103238;-60
2023/04/01 08:16:21;;;;;;;0.93;0.50;;;;;;;11.23;72.74;97292.56;5015120;27;103039;-60
2023/04/01 08:19:05;;;;;;;1.90;0.60;;;;;;;11.48;72.26;97296.34;5001762;27;102872;-60
2023/04/01 08:21:43;;;;;;;1.37;0.63;;;;;;;11.56;71.80;97296.41;4999818;27;103076;-66
2023/04/01 08:24:18;;;;;;;1.17;0.63;;;;;;;11.53;72.67;97300.19;5017047;27;104565;-66
2023/04/01 08:26:54;;;;;;;0.80;0.40;;;;;;;11.16;73.14;97306.53;5001754;27;102798;-65
2023/04/01 08:29:27;;;;;;;1.67;0.60;;;;;;;11.39;72.83;97307.81;5017661;27;102682;-66
2023/04/01 08:32:04;;;;;;;0.93;0.40;;;;;;;11.51;72.81;97307.41;5000398;27;103239;-65
2023/04/01 08:34:37;;;;;;;0.87;0.60;;;;;;;11.50;73.29;97307.59;4999006;27;103247;-66
2023/04/01 08:37:17;;;;;;;1.13;0.30;;;;;;;11.44;73.79;97309.00;5009458;27;102710;-66
2023/04/01 08:39:57;;;;;;;1.13;0.57;;;;;;;11.38;74.06;97316.69;4999033;27;104161;-66
2023/04/01 08:42:41;;;;;;;1.43;0.60;;;;;;;11.25;77.26;97321.53;5017521;27;103247;-66
2023/04/01 08:45:44;;;;;;;3.27;0.67;;;;;;;11.16;78.61;97322.41;4995219;27;103013;-65
2023/04/01 08:48:29;;;;;;;0.77;0.40;;;;;;;10.87;79.57;97320.72;5016677;27;102747;-66
2023/04/01 08:51:31;;;;;;;2.17;0.73;;;;;;;10.81;81.15;97320.47;5016038;27;102966;-65
2023/04/01 08:54:47;;;;;;;1.73;0.70;;;;;;;10.89;81.68;97321.41;5016052;27;103250;-66
2023/04/01 08:57:39;;;;;;;1.27;0.40;;;;;;;10.83;81.67;97311.44;4939262;27;104132;-65
2023/04/01 09:00:32;;;;;;;1.67;0.70;;;;;;;10.62;80.92;97313.47;5013175;27;102823;-65
2023/04/01 09:03:38;;;;;;;2.20;0.50;;;;;;;10.76;82.62;97315.63;4997356;27;102867;-66
2023/04/01 09:06:33;;;;;;;1.80;0.50;;;;;;;10.84;81.52;97307.81;4991780;27;103925;-66
2023/04/01 09:09:33;;;;;;;0.33;0.33;;;;;;;10.49;81.30;97318.22;4994075;28;103182;-65
2023/04/01 09:12:29;;;;;;;1.90;0.97;;;;;;;10.99;80.44;97326.66;4989844;27;102798;-66
2023/04/01 09:15:24;;;;;;;1.23;0.57;;;;;;;10.79;81.67;97315.34;5012818;27;104031;-66
2023/04/01 09:18:13;;;;;;;1.30;0.43;;;;;;;10.92;80.24;97318.47;4991164;27;103079;-65
2023/04/01 09:21:16;;;;;;;1.63;0.50;;;;;;;10.92;79.02;97323.75;4992922;27;103944;-65
2023/04/01 09:24:20;;;;;;;1.20;0.40;;;;;;;10.93;79.33;97322.78;4965667;27;103463;-66
2023/04/01 09:27:11;;;;;;;0.40;0.30;;;;;;;11.29;77.54;97322.88;4983669;27;103137;-66
2023/04/01 09:30:04;;;;;;;1.67;0.47;;;;;;;11.46;77.41;97327.38;4997177;27;103308;-65
2023/04/01 09:33:06;;;;;;;0.60;0.50;;;;;;;11.52;77.44;97324.13;4995886;27;108457;-65
2023/04/01 09:35:47;;;;;;;0.87;0.40;;;;;;;11.77;76.62;97320.78;5021279;27;102927;-65
2023/04/01 09:38:31;;;;;;;0.40;0.30;;;;;;;11.34;76.53;97328.56;5043860;27;103968;-65
2023/04/01 09:41:09;;;;;;;0.77;0.40;;;;;;;11.53;77.01;97325.81;5030453;27;104370;-66
2023/04/01 09:44:04;;;;;;;0.40;0.40;;;;;;;11.76;75.45;97332.31;5028792;27;103205;-66
2023/04/01 09:47:01;;;;;;;0.43;0.37;;;;;;;11.79;75.13;97321.44;5029941;27;102891;-66
2023/04/01 09:50:11;;;;;;;0.83;0.43;;;;;;;11.52;75.37;97326.78;5036440;27;104035;-65
2023/04/01 09:52:47;;;;;;;0.60;0.30;;;;;;;11.38;75.84;97335.22;5027830;27;103501;-65
2023/04/01 09:55:59;;;;;;;0.40;0.40;;;;;;;11.37;75.25;97336.19;5031020;27;103002;-65
2023/04/01 09:59:05;;;;;;;0.80;0.70;;;;;;;11.51;74.29;97338.31;5027887;27;103256;-65
2023/04/01 10:02:36;;;;;;;0.60;0.40;;;;;;;11.54;73.98;97360.00;5057147;27;102676;-66
2023/04/01 10:05:38;;;;;;;0.77;0.40;;;;;;;11.36;74.02;97339.81;5021558;27;103870;-65
2023/04/01 10:08:35;;;;;;;0.80;0.50;;;;;;;11.53;74.33;97341.66;5025460;27;103172;-65
2023/04/01 10:11:30;;;;;;;1.13;0.43;;;;;;;11.55;71.71;97347.63;5042589;27;102763;-65
2023/04/01 10:14:27;;;;;;;1.03;0.50;;;;;;;11.36;72.34;97343.31;5036944;27;102871;-65
2023/04/01 10:17:31;;;;;;;1.50;0.40;;;;;;;11.46;71.63;97351.16;5047570;27;104027;-65
2023/04/01 10:20:17;;;;;;;0.30;0.30;;;;;;;11.77;70.87;97339.28;5036355;27;103767;-65
2023/04/01 10:23:11;;;;;;;1.00;0.30;;;;;;;11.82;71.33;97352.91;5042429;27;103329;-65
2023/04/01 10:26:23;;;;;;;0.60;0.40;;;;;;;11.74;70.71;97338.75;5046186;27;102712;-65
2023/04/01 10:29:28;;;;;;;0.30;0.30;;;;;;;11.92;70.15;97342.25;5029676;27;103376;-66
2023/04/01 10:32:28;;;;;;;0.50;0.40;;;;;;;11.93;69.71;97339.44;5025819;27;103227;-66
2023/04/01 10:35:34;;;;;;;0.83;0.30;;;;;;;11.84;69.28;97344.81;5032674;27;102742;-66
2023/04/01 10:38:29;;;;;;;0.30;0.30;;;;;;;12.08;70.34;97347.69;5035225;27;103347;-65
2023/04/01 10:41:28;;;;;;;0.30;0.30;;;;;;;11.57;71.54;97343.84;5022961;27;103369;-64
2023/04/01 10:44:22;;;;;;;1.23;0.30;;;;;;;11.46;71.82;97343.22;5045481;27;103247;-64
2023/04/01 10:47:32;;;;;;;0.40;0.40;;;;;;;11.59;72.89;97349.81;5026206;27;102776;-64
2023/04/01 10:50:25;;;;;;;0.30;0.30;;;;;;;11.74;71.09;97355.47;5033548;27;102700;-67
2023/04/01 10:53:40;;;;;;;0.30;0.30;;;;;;;11.72;69.29;97325.69;5036262;27;104375;-64
2023/04/01 10:56:37;;;;;;;0.50;0.40;;;;;;;11.75;69.77;97340.44;5048569;27;103211;-64
2023/04/01 10:59:58;;;;;;;0.20;0.20;;;;;;;11.76;70.57;97348.19;5048869;27;103097;-64
2023/04/01 11:03:29;;;;;;;0.67;0.30;;;;;;;11.76;70.49;97348.19;5052334;27;103049;-64
2023/04/01 11:07:36;;;;;;;0.50;0.40;;;;;;;11.67;69.19;97364.97;5053131;27;103636;-64
2023/04/01 11:10:51;;;;;;;0.30;0.30;;;;;;;11.97;68.80;97346.09;5028874;27;103502;-64
2023/04/01 11:13:51;;;;;;;0.40;0.40;;;;;;;12.09;68.95;97347.53;5008327;27;102790;-64
2023/04/01 11:16:59;;;;;;;0.30;0.30;;;;;;;12.00;68.81;97348.44;5026611;27;103052;-64
2023/04/01 11:19:57;;;;;;;0.30;0.30;;;;;;;12.12;68.81;97346.41;5005823;27;103463;-66
2023/04/01 11:22:56;;;;;;;2.23;1.37;;;;;;;12.50;67.37;97342.53;5038972;27;103922;-64
2023/04/01 11:25:40;;;;;;;1.07;0.90;;;;;;;12.59;66.46;97357.50;5006350;27;104292;-64
2023/04/01 11:29:14;;;;;;;0.30;0.30;;;;;;;12.87;65.12;97343.09;4941198;28;103337;-65
2023/04/01 11:31:51;;;;;;;0.77;0.40;;;;;;;12.53;65.67;97343.06;5018951;27;103370;-65
2023/04/01 11:34:58;;;;;;;0.30;0.30;;;;;;;12.46;65.35;97347.31;5032933;27;103567;-67
2023/04/01 11:37:38;;;;;;;0.43;0.33;;;;;;;12.78;65.00;97347.53;5008500;27;102885;-65
2023/04/01 11:40:35;;;;;;;0.60;0.50;;;;;;;13.07;63.70;97347.22;5054433;27;102821;-65
2023/04/01 11:43:33;;;;;;;0.20;0.20;;;;;;;12.58;64.61;97358.47;4995778;27;103127;-64
2023/04/01 11:46:28;;;;;;;1.13;0.30;;;;;;;12.97;64.42;97351.75;5048832;27;103273;-65
2023/04/01 11:49:06;;;;;;;0.23;0.23;;;;;;;12.77;64.62;97360.94;5036064;27;102713;-65
2023/04/01 11:52:05;;;;;;;0.43;0.40;;;;;;;12.85;64.19;97353.03;5047905;27;103489;-65
2023/04/01 11:54:55;;;;;;;0.50;0.30;;;;;;;12.79;64.64;97369.56;5046953;27;104498;-65
2023/04/01 11:57:44;;;;;;;0.87;0.30;;;;;;;12.53;66.74;97366.06;5048858;27;103225;-65
2023/04/01 12:00:41;;;;;;;0.30;0.23;;;;;;;12.67;66.95;97370.81;5032565;27;103417;-65
2023/04/01 12:03:39;;;;;;;0.20;0.20;;;;;;;12.74;66.22;97371.88;5053562;27;104409;-65
2023/04/01 12:06:15;;;;;;;0.30;0.30;;;;;;;12.90;66.45;97377.25;5037965;27;103295;-64
2023/04/01 12:08:53;;;;;;;0.60;0.30;;;;;;;12.56;66.10;97379.00;5032775;27;103125;-65
2023/04/01 12:11:30;;;;;;;0.20;0.20;;;;;;;12.49;66.14;97372.69;5052393;27;102790;-65
2023/04/01 12:14:09;;;;;;;0.20;0.20;;;;;;;12.34;67.09;97384.81;5032492;27;104089;-65
2023/04/01 12:16:47;;;;;;;0.93;0.30;;;;;;;12.30;68.69;97384.25;5051358;27;103933;-65
2023/04/01 12:19:25;;;;;;;1.37;0.30;;;;;;;12.42;68.90;97384.84;5055072;27;103308;-65
2023/04/01 12:22:05;;;;;;;0.33;0.20;;;;;;;12.72;68.24;97384.41;5050436;27;102742;-65
2023/04/01 12:24:48;;;;;;;0.67;0.40;;;;;;;12.70;67.69;97381.09;5038388;27;102893;-65
2023/04/01 12:27:40;;;;;;;0.70;0.40;;;;;;;12.84;68.63;97388.47;5045951;27;103241;-65
2023/04/01 12:30:51;;;;;;;0.30;0.30;;;;;;;12.67;67.16;97389.34;5015174;27;103347;-65